createdAt,value
2023-05-06T00:02:14.324Z,101311.77
2023-05-06T00:07:17.465Z,101306.91
2023-05-06T00:12:20.771Z,101300.14
2023-05-06T00:17:24.165Z,101302.79
2023-05-06T00:22:27.391Z,101301.03
2023-05-06T00:27:30.515Z,101308.95
2023-05-06T00:32:33.518Z,101314.66
2023-05-06T00:37:36.612Z,101310.95
2023-05-06T00:42:39.812Z,101307.65
2023-05-06T00:47:43.479Z,101310.42
2023-05-06T00:52:46.847Z,101316.54
2023-05-06T00:57:50.770Z,101322.10
2023-05-06T01:02:53.802Z,101322.91
2023-05-06T01:08:16.033Z,101325.33
2023-05-06T01:13:18.952Z,101328.45
2023-05-06T01:18:23.570Z,101332.02
2023-05-06T01:23:26.799Z,101336.02
2023-05-06T01:28:29.883Z,101336.89
2023-05-06T01:33:37.508Z,101339.79
2023-05-06T01:38:56.078Z,101337.83
2023-05-06T01:44:00.625Z,101340.95
2023-05-06T01:49:10.647Z,101342.98
2023-05-06T01:54:14.392Z,101340.59
2023-05-06T01:59:17.510Z,101340.70
2023-05-06T02:04:20.604Z,101337.40
2023-05-06T02:09:23.715Z,101339.59
2023-05-06T02:14:27.121Z,101344.93
2023-05-06T02:19:30.345Z,101348.35
2023-05-06T02:24:33.333Z,101348.15
2023-05-06T02:29:36.438Z,101351.79
2023-05-06T02:34:39.442Z,101350.59
2023-05-06T02:39:42.444Z,101351.14
2023-05-06T02:44:45.344Z,101350.55
2023-05-06T02:49:48.247Z,101350.52
2023-05-06T02:54:51.144Z,101346.84
2023-05-06T02:59:54.156Z,101337.89
2023-05-06T03:04:57.148Z,101335.17
2023-05-06T03:10:00.361Z,101336.80
2023-05-06T03:15:03.880Z,101338.08
2023-05-06T03:20:08.957Z,101339.41
2023-05-06T03:25:12.284Z,101336.11
2023-05-06T03:30:15.642Z,101330.41
2023-05-06T03:35:18.866Z,101326.02
2023-05-06T03:40:21.971Z,101326.71
2023-05-06T03:45:25.061Z,101326.65
2023-05-06T03:50:28.072Z,101330.00
2023-05-06T03:55:31.278Z,101335.58
2023-05-06T04:00:34.275Z,101339.27
2023-05-06T04:05:37.286Z,101338.20
2023-05-06T04:10:41.205Z,101339.07
2023-05-06T04:15:44.128Z,101339.81
2023-05-06T04:20:48.373Z,101336.69
2023-05-06T04:25:51.338Z,101338.57
2023-05-06T04:30:54.342Z,101330.34
2023-05-06T04:35:57.452Z,101325.38
2023-05-06T04:41:00.670Z,101321.45
2023-05-06T04:46:03.842Z,101317.89
2023-05-06T04:51:06.871Z,101325.80
2023-05-06T04:56:09.873Z,101321.48
2023-05-06T05:01:12.892Z,101318.67
2023-05-06T05:06:16.392Z,101316.16
2023-05-06T05:11:19.709Z,101312.91
2023-05-06T05:16:22.832Z,101311.02
2023-05-06T05:21:26.120Z,101304.79
2023-05-06T05:26:29.346Z,101301.04
2023-05-06T05:31:33.019Z,101299.42
2023-05-06T05:36:36.462Z,101301.60
2023-05-06T05:41:40.090Z,101294.65
2023-05-06T05:46:43.179Z,101296.81
2023-05-06T05:51:46.285Z,101297.19
2023-05-06T05:56:50.722Z,101290.61
2023-05-06T06:01:53.625Z,101286.41
2023-05-06T06:07:02.112Z,101276.63
2023-05-06T06:12:05.274Z,101275.48
2023-05-06T06:17:08.495Z,101275.41
2023-05-06T06:22:11.576Z,101271.95
2023-05-06T06:27:14.783Z,101273.27
2023-05-06T06:32:18.501Z,101270.92
2023-05-06T06:37:21.816Z,101266.22
2023-05-06T06:42:24.816Z,101271.60
2023-05-06T06:47:27.943Z,101270.79
2023-05-06T06:52:31.953Z,101267.66
2023-05-06T06:57:35.676Z,101261.66
2023-05-06T07:02:39.024Z,101261.07
2023-05-06T07:07:42.641Z,101263.45
2023-05-06T07:12:46.075Z,101261.04
2023-05-06T07:17:49.173Z,101260.48
2023-05-06T07:22:52.223Z,101256.73
2023-05-06T07:27:55.358Z,101251.54
2023-05-06T07:32:58.460Z,101250.75
2023-05-06T07:38:01.538Z,101246.19
2023-05-06T07:43:04.655Z,101242.06
2023-05-06T07:48:07.832Z,101237.85
2023-05-06T07:53:12.084Z,101241.61
2023-05-06T07:58:15.320Z,101238.45
2023-05-06T08:03:18.647Z,101237.05
2023-05-06T08:08:23.203Z,101243.52
2023-05-06T08:13:27.174Z,101245.32
2023-05-06T08:18:30.444Z,101242.83
2023-05-06T08:23:33.796Z,101234.34
2023-05-06T08:28:37.010Z,101241.52
2023-05-06T08:33:39.900Z,101231.72
2023-05-06T08:38:49.204Z,101220.90
2023-05-06T08:43:54.614Z,101213.24
2023-05-06T08:48:58.345Z,101209.20
2023-05-06T08:54:05.130Z,101208.45
2023-05-06T08:59:11.117Z,101204.27
2023-05-06T09:04:16.456Z,101201.44
2023-05-06T09:09:19.559Z,101193.91
2023-05-06T09:14:23.078Z,101192.39
2023-05-06T09:19:27.000Z,101192.39
2023-05-06T09:24:30.003Z,101190.65
2023-05-06T09:29:33.221Z,101184.52
2023-05-06T09:34:36.544Z,101172.89
2023-05-06T09:39:39.630Z,101168.13
2023-05-06T09:44:42.842Z,101163.17
2023-05-06T09:49:46.163Z,101167.39
2023-05-06T09:54:51.759Z,101167.13
2023-05-06T09:59:55.895Z,101164.90
2023-05-06T10:05:00.074Z,101159.38
2023-05-06T10:10:04.713Z,101155.10
2023-05-06T10:15:09.069Z,101156.21
2023-05-06T10:20:14.152Z,101159.41
2023-05-06T10:25:22.680Z,101155.62
2023-05-06T10:30:26.863Z,101153.62
2023-05-06T10:35:39.285Z,101145.89
2023-05-06T10:40:42.798Z,101137.20
2023-05-06T10:45:59.118Z,101138.36
2023-05-06T10:51:32.017Z,101137.50
2023-05-06T10:57:03.196Z,101137.17
2023-05-06T11:02:10.436Z,101133.55
2023-05-06T11:07:22.091Z,101124.30
2023-05-06T11:12:44.369Z,101128.34
2023-05-06T11:17:47.493Z,101121.84
2023-05-06T11:22:50.653Z,101129.31
2023-05-06T11:27:56.234Z,101123.82
2023-05-06T11:33:05.567Z,101118.50
2023-05-06T11:38:09.458Z,101110.11
2023-05-06T11:43:12.611Z,101105.89
2023-05-06T11:48:16.324Z,101111.38
2023-05-06T11:53:21.331Z,101104.74
2023-05-06T11:58:27.792Z,101106.53
2023-05-06T12:03:33.392Z,101110.48
2023-05-06T12:08:37.345Z,101107.70
2023-05-06T12:13:40.959Z,101106.65
2023-05-06T12:18:45.084Z,101099.69
2023-05-06T12:23:55.595Z,101096.88
2023-05-06T12:29:09.137Z,101094.83
2023-05-06T12:34:12.145Z,101088.42
2023-05-06T12:39:15.239Z,101086.26
2023-05-06T12:44:38.007Z,101090.67
2023-05-06T12:49:48.072Z,101086.27
2023-05-06T12:54:54.939Z,101085.83
2023-05-06T12:59:58.188Z,101088.88
2023-05-06T13:05:02.195Z,101084.70
2023-05-06T13:10:08.588Z,101084.45
2023-05-06T13:15:12.002Z,101080.16
2023-05-06T13:20:15.315Z,101082.69
2023-05-06T13:25:18.428Z,101080.65
2023-05-06T13:30:21.509Z,101072.97
2023-05-06T13:35:24.610Z,101080.83
2023-05-06T13:40:27.732Z,101076.19
2023-05-06T13:45:31.140Z,101066.11
2023-05-06T13:50:36.286Z,101060.61
2023-05-06T13:55:39.499Z,101061.79
2023-05-06T14:00:42.493Z,101072.55
2023-05-06T14:05:45.599Z,101068.98
2023-05-06T14:10:48.615Z,101067.13
2023-05-06T14:15:51.626Z,101064.89
2023-05-06T14:20:55.017Z,101061.52
2023-05-06T14:25:58.343Z,101063.92
2023-05-06T14:31:01.350Z,101058.96
2023-05-06T14:36:04.748Z,101051.30
2023-05-06T14:41:07.681Z,101043.03
2023-05-06T14:46:11.630Z,101047.30
2023-05-06T14:51:14.785Z,101050.70
2023-05-06T14:56:17.816Z,101045.98
2023-05-06T15:01:20.942Z,101042.44
2023-05-06T15:06:24.243Z,101042.15
2023-05-06T15:11:27.422Z,101044.80
2023-05-06T15:16:30.907Z,101046.02
2023-05-06T15:21:34.234Z,101044.39
2023-05-06T15:26:37.240Z,101048.67
2023-05-06T15:31:41.273Z,101051.35
2023-05-06T15:36:44.783Z,101054.80
2023-05-06T15:41:48.395Z,101047.48
2023-05-06T15:46:51.444Z,101045.81
2023-05-06T15:51:54.919Z,101045.18
2023-05-06T15:57:00.792Z,101043.06
2023-05-06T16:07:10.080Z,101044.11
2023-05-06T16:12:15.028Z,101043.60
2023-05-06T16:17:18.258Z,101045.52
2023-05-06T16:22:21.426Z,101047.85
2023-05-06T16:27:24.746Z,101049.01
2023-05-06T16:32:27.874Z,101056.91
2023-05-06T16:37:31.387Z,101053.95
2023-05-06T16:42:34.473Z,101054.56
2023-05-06T16:47:37.572Z,101054.20
2023-05-06T16:52:41.191Z,101053.23
2023-05-06T16:57:44.316Z,101047.80
2023-05-06T17:02:47.791Z,101050.33
2023-05-06T17:07:51.075Z,101051.86
2023-05-06T17:12:54.267Z,101052.36
2023-05-06T17:17:57.599Z,101054.23
2023-05-06T17:23:00.864Z,101056.24
2023-05-06T17:28:03.952Z,101055.40
2023-05-06T17:33:07.626Z,101055.51
2023-05-06T17:38:12.212Z,101057.04
2023-05-06T17:43:16.090Z,101058.36
2023-05-06T17:48:19.372Z,101057.59
2023-05-06T17:53:23.389Z,101057.17
2023-05-06T17:58:27.500Z,101057.36
2023-05-06T18:03:31.215Z,101062.87
2023-05-06T18:08:34.530Z,101066.08
2023-05-06T18:13:37.759Z,101070.45
2023-05-06T18:18:41.275Z,101071.23
2023-05-06T18:23:45.031Z,101076.58
2023-05-06T18:28:48.517Z,101076.49
2023-05-06T18:33:52.359Z,101079.79
2023-05-06T18:38:55.829Z,101080.59
2023-05-06T18:43:59.441Z,101086.45
2023-05-06T18:49:02.888Z,101091.30
2023-05-06T18:54:07.717Z,101094.62
2023-05-06T18:59:11.701Z,101095.80
2023-05-06T19:04:15.390Z,101095.00
2023-05-06T19:09:18.984Z,101100.39
2023-05-06T19:14:23.684Z,101104.05
2023-05-06T19:19:28.661Z,101107.30
2023-05-06T19:24:31.977Z,101109.30
2023-05-06T19:29:35.280Z,101109.98
2023-05-06T19:34:39.208Z,101109.73
2023-05-06T19:39:42.986Z,101107.77
2023-05-06T19:44:47.389Z,101105.96
2023-05-06T19:49:52.175Z,101109.77
2023-05-06T19:54:55.928Z,101111.99
2023-05-06T20:00:00.695Z,101112.70
2023-05-06T20:05:07.134Z,101115.96
2023-05-06T20:10:13.810Z,101118.39
2023-05-06T20:15:17.798Z,101119.39
2023-05-06T20:20:21.600Z,101123.09
2023-05-06T20:25:25.421Z,101122.23
2023-05-06T20:30:28.673Z,101119.35
2023-05-06T20:35:32.043Z,101118.41
2023-05-06T20:40:37.918Z,101115.81
2023-05-06T20:45:41.609Z,101117.16
2023-05-06T20:50:45.150Z,101115.19
2023-05-06T20:55:48.954Z,101113.38
2023-05-06T21:00:52.742Z,101119.07
2023-05-06T21:05:55.792Z,101115.38
2023-05-06T21:10:58.964Z,101118.95
2023-05-06T21:16:03.438Z,101122.69
2023-05-06T21:21:06.755Z,101123.86
2023-05-06T21:26:11.274Z,101124.31
2023-05-06T21:31:15.028Z,101123.40
2023-05-06T21:36:18.046Z,101125.77
2023-05-06T21:41:21.518Z,101132.41
2023-05-06T21:46:24.679Z,101130.83
2023-05-06T21:51:29.544Z,101134.92
2023-05-06T21:56:32.881Z,101137.46
2023-05-06T22:01:36.825Z,101141.02
2023-05-06T22:06:40.016Z,101146.94
2023-05-06T22:11:43.122Z,101147.64
2023-05-06T22:16:46.130Z,101146.98
2023-05-06T22:21:49.333Z,101145.94
2023-05-06T22:26:52.435Z,101148.25
2023-05-06T22:31:56.101Z,101148.12
2023-05-06T22:37:00.698Z,101144.00
2023-05-06T22:42:04.516Z,101142.24
2023-05-06T22:47:07.534Z,101144.92
2023-05-06T22:52:10.825Z,101150.35
2023-05-06T22:57:14.678Z,101149.86
2023-05-06T23:02:17.862Z,101154.95
2023-05-06T23:07:20.865Z,101159.23
2023-05-06T23:12:23.973Z,101164.33
2023-05-06T23:17:27.036Z,101161.83
2023-05-06T23:22:29.974Z,101162.89
2023-05-06T23:27:33.013Z,101161.52
2023-05-06T23:32:36.726Z,101165.74
2023-05-06T23:37:40.010Z,101172.66
2023-05-06T23:42:43.121Z,101174.38
2023-05-06T23:47:46.575Z,101172.30
2023-05-06T23:52:49.687Z,101174.05
2023-05-06T23:57:53.035Z,101175.71
